Terminal Aerodrome Forecast
Issued by NWS

Home | Current Version | Previous Version | Text Only | Print | Product List | Glossary On
Versions: 1 2 3 4 5 6 7 8 9 10 11 12 13 14
000
FTUS41 KPBZ 251304 AAA
TAFZZV
TAF AMD
KZZV 251304Z 2513/2612 18008KT P6SM BKN150
     FM251500 20012G22KT P6SM SCT050
     FM252100 23010G20KT P6SM VCSH BKN040
     FM260100 20005KT P6SM BKN080=

USA.gov is the U.S. government's official web portal to all federal, state and local government web resources and services.